createdAt,value
2019-05-21T00:01:26.198Z,96886.00
2019-05-21T00:05:27.085Z,96887.00
2019-05-21T00:09:27.978Z,96889.00
2019-05-21T00:13:28.848Z,96888.00
2019-05-21T00:17:29.731Z,96888.00
2019-05-21T00:21:30.775Z,96891.00
2019-05-21T00:25:31.660Z,96882.00
2019-05-21T00:30:10.216Z,96886.00
2019-05-21T00:34:48.693Z,96890.00
2019-05-21T00:39:27.029Z,96883.00
2019-05-21T00:43:40.767Z,96885.00
2019-05-21T00:47:41.728Z,96876.00
2019-05-21T00:51:42.624Z,96876.00
2019-05-21T00:55:43.505Z,96874.00
2019-05-21T00:59:45.405Z,96871.00
2019-05-21T01:03:46.405Z,96871.00
2019-05-21T01:07:47.284Z,96867.00
2019-05-21T01:11:48.157Z,96867.00
2019-05-21T01:15:49.513Z,96863.00
2019-05-21T01:19:50.568Z,96858.00
2019-05-21T01:23:51.413Z,96850.00
2019-05-21T01:27:52.295Z,96843.00
2019-05-21T01:31:53.175Z,96841.00
2019-05-21T01:35:54.279Z,96844.00
2019-05-21T01:39:55.145Z,96830.00
2019-05-21T01:43:56.032Z,96826.00
2019-05-21T01:47:56.918Z,96817.00
2019-05-21T01:51:57.810Z,96806.00
2019-05-21T01:55:58.679Z,96818.00
2019-05-21T01:59:59.542Z,96833.00
2019-05-21T02:04:00.526Z,96814.00
2019-05-21T02:08:01.404Z,96819.00
2019-05-21T02:12:02.390Z,96816.00
2019-05-21T02:16:03.474Z,96808.00
2019-05-21T02:20:04.869Z,96800.00
2019-05-21T02:24:05.871Z,96801.00
2019-05-21T02:28:06.861Z,96803.00
2019-05-21T02:32:07.854Z,96801.00
2019-05-21T02:36:09.127Z,96814.00
2019-05-21T02:40:11.494Z,96780.00
2019-05-21T02:44:12.389Z,96788.00
2019-05-21T02:48:13.301Z,96787.00
2019-05-21T02:52:14.168Z,96783.00
2019-05-21T02:56:15.129Z,96772.00
2019-05-21T03:00:27.893Z,96779.00
2019-05-21T03:04:28.793Z,96780.00
2019-05-21T03:08:29.674Z,96783.00
2019-05-21T03:12:30.554Z,96779.00
2019-05-21T03:16:31.463Z,96787.00
2019-05-21T03:20:32.464Z,96792.00
2019-05-21T03:24:33.339Z,96796.00
2019-05-21T03:28:34.254Z,96801.00
2019-05-21T03:32:35.229Z,96811.00
2019-05-21T03:36:36.218Z,96807.00
2019-05-21T03:40:37.107Z,96808.00
2019-05-21T03:44:38.114Z,96794.00
2019-05-21T03:48:39.267Z,96804.00
2019-05-21T03:52:40.114Z,96809.00
2019-05-21T03:56:41.005Z,96811.00
2019-05-21T04:00:41.894Z,96818.00
2019-05-21T04:04:42.770Z,96810.00
2019-05-21T04:08:43.700Z,96808.00
2019-05-21T04:12:46.493Z,96805.00
2019-05-21T04:16:52.014Z,96813.00
2019-05-21T04:20:53.354Z,96812.00
2019-05-21T04:24:54.321Z,96825.00
2019-05-21T04:28:55.230Z,96825.00
2019-05-21T04:32:56.198Z,96825.00
2019-05-21T04:37:10.029Z,96828.00
2019-05-21T04:41:00.006Z,96825.00
2019-05-21T04:45:00.882Z,96829.00
2019-05-21T04:49:01.749Z,96830.00
2019-05-21T04:53:02.777Z,96826.00
2019-05-21T04:57:03.768Z,96834.00
2019-05-21T05:01:04.967Z,96842.00
2019-05-21T05:05:06.150Z,96835.00
2019-05-21T05:09:07.216Z,96838.00
2019-05-21T05:13:08.119Z,96851.00
2019-05-21T05:17:09.008Z,96848.00
2019-05-21T05:21:09.961Z,96838.00
2019-05-21T05:25:11.256Z,96839.00
2019-05-21T05:29:12.113Z,96848.00
2019-05-21T05:33:12.988Z,96853.00
2019-05-21T05:37:14.083Z,96874.00
2019-05-21T05:41:14.926Z,96872.00
2019-05-21T05:45:16.518Z,96866.00
2019-05-21T05:49:22.301Z,96877.00
2019-05-21T05:53:23.273Z,96887.00
2019-05-21T05:57:44.026Z,96877.00
2019-05-21T06:01:44.990Z,96877.00
2019-05-21T06:05:45.908Z,96878.00
2019-05-21T06:09:46.787Z,96883.00
2019-05-21T06:13:47.688Z,96887.00
2019-05-21T06:17:48.645Z,96891.00
2019-05-21T06:21:50.137Z,96901.00
2019-05-21T06:25:51.025Z,96902.00
2019-05-21T06:29:51.898Z,96896.00
2019-05-21T06:33:52.826Z,96910.00
2019-05-21T06:37:53.765Z,96911.00
2019-05-21T06:41:54.770Z,96917.00
2019-05-21T06:45:55.736Z,96928.00
2019-05-21T06:49:56.638Z,96936.00
2019-05-21T06:53:57.477Z,96948.00
2019-05-21T06:57:58.546Z,96958.00
2019-05-21T07:01:59.435Z,96964.00
2019-05-21T07:06:00.324Z,96966.00
2019-05-21T07:10:01.207Z,96969.00
2019-05-21T07:14:02.495Z,96958.00
2019-05-21T07:18:03.485Z,96970.00
2019-05-21T07:22:12.846Z,96961.00
2019-05-21T07:26:07.356Z,96973.00
2019-05-21T07:30:08.537Z,96991.00
2019-05-21T07:34:09.619Z,96988.00
2019-05-21T07:38:10.606Z,97002.00
2019-05-21T07:42:11.512Z,97004.00
2019-05-21T07:46:12.691Z,97014.00
2019-05-21T07:50:13.869Z,96998.00
2019-05-21T07:54:14.783Z,97020.00
2019-05-21T07:58:15.784Z,97013.00
2019-05-21T08:02:16.652Z,97015.00
2019-05-21T08:06:17.616Z,97027.00
2019-05-21T08:10:18.654Z,97035.00
2019-05-21T08:14:19.812Z,97032.00
2019-05-21T08:18:20.836Z,97042.00
2019-05-21T08:22:21.787Z,97038.00
2019-05-21T08:26:22.764Z,97022.00
2019-05-21T08:30:23.772Z,97030.00
2019-05-21T08:34:24.789Z,97050.00
2019-05-21T08:38:25.760Z,97053.00
2019-05-21T08:42:26.858Z,97058.00
2019-05-21T08:46:27.739Z,97060.00
2019-05-21T08:50:28.641Z,97057.00
2019-05-21T08:54:48.075Z,97066.00
2019-05-21T08:58:49.082Z,97060.00
2019-05-21T09:02:50.439Z,97062.00
2019-05-21T09:06:51.360Z,97065.00
2019-05-21T09:10:52.248Z,97078.00
2019-05-21T09:14:53.148Z,97068.00
2019-05-21T09:18:54.099Z,97077.00
2019-05-21T09:22:55.070Z,97094.00
2019-05-21T09:26:55.972Z,97105.00
2019-05-21T09:30:56.931Z,97106.00
2019-05-21T09:34:57.850Z,97109.00
2019-05-21T09:38:58.824Z,97111.00
2019-05-21T09:42:59.715Z,97118.00
2019-05-21T09:47:00.781Z,97125.00
2019-05-21T09:51:01.917Z,97129.00
2019-05-21T09:55:06.452Z,97146.00
2019-05-21T09:59:10.816Z,97152.00
2019-05-21T10:03:25.866Z,97156.00
2019-05-21T10:07:38.998Z,97172.00
2019-05-21T10:11:29.537Z,97165.00
2019-05-21T10:15:30.399Z,97166.00
2019-05-21T10:19:31.269Z,97168.00
2019-05-21T10:23:32.181Z,97170.00
2019-05-21T10:27:33.338Z,97192.00
2019-05-21T10:31:34.203Z,97200.00
2019-05-21T10:35:35.346Z,97199.00
2019-05-21T10:39:36.464Z,97202.00
2019-05-21T10:43:37.495Z,97199.00
2019-05-21T10:47:38.469Z,97200.00
2019-05-21T10:51:39.573Z,97196.00
2019-05-21T10:55:40.468Z,97204.00
2019-05-21T10:59:41.423Z,97221.00
2019-05-21T11:03:44.235Z,97230.00
2019-05-21T11:07:45.438Z,97243.00
2019-05-21T11:11:46.413Z,97252.00
2019-05-21T11:15:47.390Z,97262.00
2019-05-21T11:19:48.567Z,97257.00
2019-05-21T11:23:49.619Z,97263.00
2019-05-21T11:27:50.625Z,97273.00
2019-05-21T11:31:56.951Z,97287.00
2019-05-21T11:35:54.379Z,97293.00
2019-05-21T11:39:55.645Z,97291.00
2019-05-21T11:43:56.957Z,97292.00
2019-05-21T11:47:58.126Z,97300.00
2019-05-21T11:51:59.104Z,97305.00
2019-05-21T11:56:00.214Z,97310.00
2019-05-21T12:00:01.624Z,97313.00
2019-05-21T12:04:02.825Z,97321.00
2019-05-21T12:08:03.942Z,97324.00
2019-05-21T12:12:05.289Z,97326.00
2019-05-21T12:16:06.380Z,97314.00
2019-05-21T12:20:08.229Z,97327.00
2019-05-21T12:24:09.150Z,97318.00
2019-05-21T12:28:11.357Z,97337.00
2019-05-21T12:32:12.590Z,97332.00
2019-05-21T12:36:13.568Z,97347.00
2019-05-21T12:40:14.957Z,97358.00
2019-05-21T12:44:15.845Z,97368.00
2019-05-21T12:48:16.817Z,97357.00
2019-05-21T12:52:17.685Z,97364.00
2019-05-21T12:56:20.583Z,97361.00
2019-05-21T13:00:25.433Z,97373.00
2019-05-21T13:04:26.491Z,97367.00
2019-05-21T13:08:27.407Z,97378.00
2019-05-21T13:12:28.444Z,97383.00
2019-05-21T13:16:29.625Z,97388.00
2019-05-21T13:20:30.767Z,97399.00
2019-05-21T13:24:31.872Z,97415.00
2019-05-21T13:28:33.017Z,97428.00
2019-05-21T13:32:34.139Z,97434.00
2019-05-21T13:36:35.121Z,97440.00
2019-05-21T13:40:36.543Z,97434.00
2019-05-21T13:44:37.514Z,97440.00
2019-05-21T13:48:38.615Z,97443.00
2019-05-21T13:52:39.762Z,97451.00
2019-05-21T13:56:44.079Z,97449.00
2019-05-21T14:00:46.309Z,97452.00
2019-05-21T14:04:47.297Z,97456.00
2019-05-21T14:08:48.508Z,97465.00
2019-05-21T14:12:49.534Z,97455.00
2019-05-21T14:16:50.419Z,97464.00
2019-05-21T14:20:51.455Z,97459.00
2019-05-21T14:24:52.527Z,97459.00
2019-05-21T14:28:53.510Z,97465.00
2019-05-21T14:32:54.609Z,97464.00
2019-05-21T14:36:55.673Z,97463.00
2019-05-21T14:40:56.812Z,97460.00
2019-05-21T14:44:57.689Z,97469.00
2019-05-21T14:48:58.568Z,97470.00
2019-05-21T14:52:59.484Z,97477.00
2019-05-21T14:57:02.244Z,97480.00
2019-05-21T15:01:03.873Z,97481.00
2019-05-21T15:05:05.258Z,97487.00
2019-05-21T15:09:06.306Z,97488.00
2019-05-21T15:13:07.298Z,97479.00
2019-05-21T15:17:08.564Z,97475.00
2019-05-21T15:21:11.371Z,97485.00
2019-05-21T15:25:12.557Z,97495.00
2019-05-21T15:29:13.617Z,97502.00
2019-05-21T15:33:14.638Z,97494.00
2019-05-21T15:37:15.628Z,97515.00
2019-05-21T15:41:16.494Z,97512.00
2019-05-21T15:45:17.801Z,97520.00
2019-05-21T15:49:33.319Z,97521.00
2019-05-21T15:53:21.589Z,97519.00
2019-05-21T15:57:22.574Z,97521.00
2019-05-21T16:01:23.488Z,97532.00
2019-05-21T16:05:24.479Z,97522.00
2019-05-21T16:09:25.397Z,97534.00
2019-05-21T16:13:26.751Z,97525.00
2019-05-21T16:17:27.717Z,97528.00
2019-05-21T16:21:28.612Z,97543.00
2019-05-21T16:25:29.593Z,97534.00
2019-05-21T16:29:30.693Z,97540.00
2019-05-21T16:33:31.581Z,97533.00
2019-05-21T16:37:32.574Z,97537.00
2019-05-21T16:41:44.339Z,97533.00
2019-05-21T16:45:36.263Z,97538.00
2019-05-21T16:49:37.502Z,97537.00
2019-05-21T16:53:38.387Z,97537.00
2019-05-21T16:57:39.283Z,97538.00
2019-05-21T17:01:40.285Z,97539.00
2019-05-21T17:05:41.401Z,97545.00
2019-05-21T17:09:42.522Z,97551.00
2019-05-21T17:13:43.488Z,97566.00
2019-05-21T17:17:44.488Z,97564.00
2019-05-21T17:21:45.536Z,97558.00
2019-05-21T17:25:46.518Z,97573.00
2019-05-21T17:29:47.610Z,97576.00
2019-05-21T17:33:48.497Z,97578.00
2019-05-21T17:37:49.561Z,97577.00
2019-05-21T17:41:51.628Z,97596.00
2019-05-21T17:45:52.617Z,97594.00
2019-05-21T17:49:53.654Z,97609.00
2019-05-21T17:53:54.757Z,97591.00
2019-05-21T17:57:56.081Z,97609.00
2019-05-21T18:01:57.877Z,97614.00
2019-05-21T18:05:59.483Z,97616.00
2019-05-21T18:10:00.477Z,97612.00
2019-05-21T18:14:01.740Z,97623.00
2019-05-21T18:18:03.531Z,97626.00
2019-05-21T18:22:05.612Z,97636.00
2019-05-21T18:26:07.197Z,97643.00
2019-05-21T18:30:08.704Z,97651.00
2019-05-21T18:34:09.798Z,97661.00
2019-05-21T18:38:10.925Z,97658.00
2019-05-21T18:42:21.760Z,97672.00
2019-05-21T18:46:14.989Z,97682.00
2019-05-21T18:50:16.284Z,97681.00
2019-05-21T18:54:17.478Z,97679.00
2019-05-21T18:58:18.558Z,97684.00
2019-05-21T19:02:19.584Z,97691.00
2019-05-21T19:06:20.708Z,97693.00
2019-05-21T19:10:21.845Z,97694.00
2019-05-21T19:14:23.103Z,97710.00
2019-05-21T19:18:24.229Z,97725.00
2019-05-21T19:22:27.534Z,97736.00
2019-05-21T19:26:28.512Z,97737.00
2019-05-21T19:30:29.904Z,97742.00
2019-05-21T19:34:30.943Z,97739.00
2019-05-21T19:38:31.860Z,97750.00
2019-05-21T19:42:32.932Z,97751.00
2019-05-21T19:46:33.930Z,97743.00
2019-05-21T19:50:34.944Z,97753.00
2019-05-21T19:54:35.955Z,97760.00
2019-05-21T19:58:37.084Z,97761.00
2019-05-21T20:02:38.261Z,97765.00
2019-05-21T20:06:39.534Z,97767.00
2019-05-21T20:10:41.754Z,97787.00
2019-05-21T20:14:44.365Z,97761.00
2019-05-21T20:18:45.380Z,97772.00
2019-05-21T20:22:46.617Z,97777.00
2019-05-21T20:26:47.871Z,97790.00
2019-05-21T20:30:49.287Z,97791.00
2019-05-21T20:34:51.067Z,97789.00
2019-05-21T20:38:52.666Z,97797.00
2019-05-21T20:42:54.061Z,97788.00
2019-05-21T20:46:56.432Z,97797.00
2019-05-21T20:50:58.253Z,97787.00
2019-05-21T20:54:59.943Z,97785.00
2019-05-21T20:59:01.129Z,97783.00
2019-05-21T21:03:02.911Z,97790.00
2019-05-21T21:07:04.581Z,97793.00
2019-05-21T21:11:07.664Z,97797.00
2019-05-21T21:15:09.551Z,97800.00
2019-05-21T21:19:10.785Z,97798.00
2019-05-21T21:23:13.902Z,97799.00
2019-05-21T21:27:15.260Z,97798.00
2019-05-21T21:31:16.130Z,97809.00
2019-05-21T21:35:17.676Z,97816.00
2019-05-21T21:39:18.636Z,97814.00
2019-05-21T21:43:19.504Z,97809.00
2019-05-21T21:47:20.666Z,97813.00
2019-05-21T21:51:21.860Z,97825.00
2019-05-21T21:55:22.850Z,97818.00
2019-05-21T21:59:23.733Z,97812.00
2019-05-21T22:03:28.331Z,97810.00
2019-05-21T22:07:29.497Z,97806.00
2019-05-21T22:11:31.725Z,97813.00
2019-05-21T22:15:32.989Z,97809.00
2019-05-21T22:19:33.956Z,97826.00
2019-05-21T22:23:35.213Z,97832.00
2019-05-21T22:27:36.322Z,97817.00
2019-05-21T22:31:37.521Z,97829.00
2019-05-21T22:35:38.527Z,97826.00
2019-05-21T22:39:39.709Z,97831.00
2019-05-21T22:43:40.660Z,97828.00
2019-05-21T22:47:41.648Z,97826.00
2019-05-21T22:51:42.514Z,97824.00
2019-05-21T22:55:43.430Z,97832.00
2019-05-21T22:59:44.887Z,97828.00
2019-05-21T23:03:46.149Z,97826.00
2019-05-21T23:07:47.042Z,97832.00
2019-05-21T23:11:48.013Z,97831.00
2019-05-21T23:15:50.240Z,97818.00
2019-05-21T23:19:51.400Z,97814.00
2019-05-21T23:23:52.949Z,97813.00
2019-05-21T23:27:55.136Z,97810.00
2019-05-21T23:31:56.201Z,97811.00
2019-05-21T23:35:58.300Z,97810.00
2019-05-21T23:40:00.162Z,97815.00
2019-05-21T23:44:03.095Z,97823.00
2019-05-21T23:48:05.081Z,97820.00
2019-05-21T23:52:06.379Z,97822.00
2019-05-21T23:56:07.340Z,97832.00
